Tiempo atmosférico en la estación meteorológica de Zumaia, Gipuzkoa (28 m.)



Fecha
DESCASC
Temp. máxima en grados centígrados (hora)
DESCASC
Temp. mínima en grados centígrados (hora)
DESCASC
Temp. media en grados centígrados
DESCASC
Racha de viento máxima en m/sg (hora)
DESCASC
Velocidad máxima media en intervalos de 10 minutos(hora)
DESCASC
Precipitaciones diarias en mm
DESCASC
Precipitaciones de 00:00 a 06:00 en mm
DESCASC
Precipitaciones de 06:00 a 12:00 en mm
DESCASC
Precipitaciones de 12:00 a 18:00 en mm
DESCASC
Precipitaciones de 18:00 a 24:00 en mm
DESCASC
13-10-2019 29.6 (14:30) 17.7 (23:40) 23.7 18.33 (07:20) 8.89 (07:20) 0 0 0 0 0
12-10-2019 28.5 (18:00) 18.9 (05:20) 23.7 17.78 (20:10) 9.17 (20:00) 0 0 0 0 0
11-10-2019 30.1 (15:50) 11.9 (05:50) 21 15 (08:00) 7.22 (08:10) 0 0 0 0 0
10-10-2019 22.2 (13:20) 12.1 (00:00) 17.2 5.83 (17:10) 4.17 (15:50) 0 0 0 0 0
09-10-2019 20.9 (14:40) 14.2 (00:00) 17.5 12.78 (07:50) 8.89 (17:10) 1.8 1.2 0.6 0 0
08-10-2019 24.2 (16:20) 12.5 (00:00) 18.4 12.5 (21:00) 10 (20:50) 2.2 0 0 0 2.2
07-10-2019 22.3 (17:20) 12.3 (00:00) 17.3 8.33 (15:20) 5.83 (15:30) 0 0 0 0 0
06-10-2019 19.6 (12:40) 14.3 (00:00) 17 13.33 (13:10) 9.17 (13:10) 1.7 0 0 1.6 0.1
05-10-2019 22.6 (14:30) 14.5 (00:00) 18.6 5 (02:00) 2.78 (13:20) 0.5 0.4 0.1 0 0
04-10-2019 18.7 (13:10) 15.1 (00:00) 16.9 8.89 (13:10) 6.39 (13:10) 3.8 0 2 1.6 0.2
03-10-2019 22.3 (16:30) 14.1 (00:00) 18.2 5.28 (15:00) 3.89 (15:00) 0 0 0 0 0
02-10-2019 19.5 (00:10) 15.9 (00:00) 17.7 15.83 (05:20) 8.33 (16:10) 9.1 1.9 3.6 3.5 0.1
01-10-2019 24.8 (12:30) 16.2 (00:00) 20.5 13.89 (22:10) 10.28 (20:20) 0.1 0 0 0 0.1
30-09-2019 25.9 (16:00) 17.4 (00:00) 21.6 6.11 (13:50) 4.44 (14:10) 0 0 0 0 0
29-09-2019 24.6 (17:20) 13.4 (00:00) 19 4.44 (01:10) 3.61 (01:10) 0.1 0 0.1 0 0
28-09-2019 22.3 (15:10) 16 (00:00) 19.1 20.56 (04:30) 6.11 (04:30) 0.8 0.7 0 0 0.1
27-09-2019 24.8 (12:00) 15.1 (00:00) 19.9 11.39 (21:00) 8.06 (12:50) 0 0 0 0 0
26-09-2019 23.6 (16:10) 15.1 (00:00) 19.4 4.72 (23:10) 3.06 (16:50) 0 0 0 0 0
25-09-2019 23.7 (14:20) 16.7 (00:00) 20.2 12.5 (16:30) 8.33 (17:20) 0 0 0 0 0
24-09-2019 25.4 (13:50) 17.2 (00:00) 21.3 13.61 (06:40) 8.89 (14:30) 0.4 0 0 0 0.4
23-09-2019 24.3 (13:40) 14.1 (00:00) 19.2 9.17 (15:50) 4.17 (14:40) 0 0 0 0 0
22-09-2019 25.4 (00:10) 16.1 (00:00) 20.8 15.28 (03:20) 10 (03:10) 18.4 8.4 10 0 0
21-09-2019 29.6 (14:10) 21 (00:00) 25.3 20 (05:10) 10.56 (07:50) 0.2 0.2 0 0 0
20-09-2019 32.6 (16:30) 15.5 (00:00) 24 13.61 (12:00) 6.39 (12:10) 0 0 0 0 0
19-09-2019 25.4 (14:00) 15.8 (00:00) 20.6 6.39 (13:40) 5 (14:30) 0 0 0 0 0
18-09-2019 24.7 (14:30) 17.7 (00:00) 21.2 9.44 (15:10) 6.94 (15:10) 1.3 1.3 0 0 0
17-09-2019 26.8 (16:20) 16.9 (00:00) 21.8 4.72 (01:00) 3.61 (11:50) 0 0 0 0 0
16-09-2019 26 (17:00) 18.5 (00:00) 22.3 6.11 (13:50) 4.72 (13:50) 2.9 2.8 0.1 0 0
15-09-2019 25.5 (14:50) 17.7 (00:00) 21.6 9.44 (23:00) 4.44 (17:40) 1.1 0 0 0.7 0.4

Gráficas

Temp. máximas Temp. mínimas Temp. medias Precipitaciones Rachas de viento máximas Velocidades máximas media en intervalos de 10 minutos

Datos horarios

Fecha y hora oficial Temperatura (ºC) Velocidad del viento (km/h) Dirección del viento Racha (km/h) Dirección de racha Precipitación (mm) Presión (hPa) Tendencia (hPa) Humedad (%)
2019-10-14 23:00:00 13.6 4 Oeste 28 Noroeste 0.7 -- -- 83
2019-10-14 22:00:00 15.4 19 Noroeste 53 Noroeste 0 -- -- 82
2019-10-14 21:00:00 16.9 13 Sur 37 Sudoeste 0.1 -- -- 75
2019-10-14 20:00:00 17.5 0 Calma 35 Noroeste 0.2 -- -- 88
2019-10-14 19:00:00 17.4 0 Calma -- -- 0 -- -- 85
2019-10-14 18:00:00 18.8 3 Norte 18 Norte 0 -- -- 81
2019-10-14 17:00:00 19 12 Norte 22 Noroeste 0 -- -- 79
2019-10-14 16:00:00 19.8 14 Noroeste 28 Noroeste 0 -- -- 85
2019-10-14 15:00:00 18.9 21 Noroeste 32 Noroeste 0 -- -- 92
2019-10-14 14:00:00 18.1 0 Calma 57 Noroeste 12 -- -- 94
2019-10-14 13:00:00 19.3 24 Noroeste 35 Noroeste 0 -- -- 79
2019-10-14 12:00:00 21.2 14 Noroeste 31 Noroeste 0.1 -- -- 80
2019-10-14 11:00:00 19.3 22 Noroeste 43 Noroeste 0 -- -- 87
2019-10-14 10:00:00 19 31 Noroeste 48 Noroeste 0 -- -- 87
2019-10-14 09:00:00 20 31 Noroeste 50 Noroeste 0 -- -- 83
2019-10-14 08:00:00 23.3 22 Sur 59 Sur 0 -- -- 56
2019-10-14 07:00:00 23.6 28 Sur 53 Sur 0 -- -- 55
2019-10-14 06:00:00 23.6 19 Sur 46 Sudeste 0 -- -- 54
2019-10-14 05:00:00 23.6 13 Sur 32 Sudeste 0 -- -- 55
2019-10-14 04:00:00 23.6 14 Sur 34 Sur 0 -- -- 53
2019-10-14 03:00:00 24.2 15 Sur 37 Sudoeste 0 -- -- 51
2019-10-14 02:00:00 23.8 16 Sur 40 Sur 0 -- -- 55
2019-10-14 01:00:00 24 18 Sur 41 Sur 0 -- -- 61
2019-10-14 00:00:00 18.7 0 Calma -- -- 0 -- -- 90
2019-10-13 23:00:00 18.5 0 Calma 12 Sur 0 -- -- 88
2019-10-13 22:00:00 19.3 0 Calma 12 Sudoeste 0 -- -- 82
2019-10-13 21:00:00 20.6 0 Calma 22 Noroeste 0 -- -- 75
2019-10-13 20:00:00 21.6 9 Oeste 25 Noroeste 0 -- -- 73
2019-10-13 19:00:00 23.5 0 Calma 24 Noroeste 0 -- -- 64
2019-10-13 18:00:00 23.5 18 Oeste 31 Noroeste 0 -- -- 59
2019-10-13 17:00:00 27.1 0 Calma 16 Sur 0 -- -- 49
2019-10-13 16:00:00 28.3 8 Sur 29 Sur 0 -- -- 46
2019-10-13 15:00:00 28.9 7 Sur 34 Sur 0 -- -- 45
2019-10-13 14:00:00 28.4 11 Sur 51 Sudoeste 0 -- -- 46
2019-10-13 13:00:00 26.1 28 Sur 58 Sur 0 -- -- 50
2019-10-13 12:00:00 26.6 21 Sur 53 Sur 0 -- -- 50
2019-10-13 11:00:00 25.3 27 Sur 49 Sur 0 -- -- 51
2019-10-13 10:00:00 24.3 18 Sur 65 Sur 0 -- -- 52
2019-10-13 09:00:00 22.8 28 Sur 54 Sur 0 -- -- 54
2019-10-13 08:00:00 22.7 24 Sur 66 Sur 0 -- -- 55
2019-10-13 07:00:00 23.1 28 Sur 64 Sur 0 -- -- 53
2019-10-13 06:00:00 23.3 26 Sur 54 Sur 0 -- -- 51
2019-10-13 05:00:00 23.7 19 Sur 44 Sudoeste 0 -- -- 49
2019-10-13 04:00:00 23.9 21 Sur 50 Sudeste 0 -- -- 51
2019-10-13 03:00:00 24.1 24 Sur 41 Sur 0 -- -- 52
2019-10-13 02:00:00 24.4 22 Sur 44 Sur 0 -- -- 52
2019-10-13 01:00:00 24.8 25 Sur 50 Sur 0 -- -- 51
2019-10-13 00:00:00 25.2 28 Sur 54 Sur 0 -- -- 51
2019-10-12 23:00:00 25.7 24 Sur 45 Sur 0 -- -- 50
2019-10-12 22:00:00 25.6 24 Sur 45 Sudoeste 0 -- -- 51
2019-10-12 21:00:00 26.3 26 Sur 64 Sur 0 -- -- 46
2019-10-12 20:00:00 26.9 33 Sur 64 Sur 0 -- -- 44
2019-10-12 19:00:00 27.3 16 Sur 50 Sur 0 -- -- 46
2019-10-12 18:00:00 28.4 27 Sur 54 Sur 0 -- -- 44
2019-10-12 17:00:00 27.4 12 Sur 49 Sur 0 -- -- 48
2019-10-12 16:00:00 26.5 28 Sur 58 Sur 0 -- -- 50
2019-10-12 15:00:00 25.9 26 Sur 55 Sur 0 -- -- 52
2019-10-12 14:00:00 24.7 29 Sur 53 Sur 0 -- -- 54
2019-10-12 13:00:00 24.4 23 Sur 46 Sudoeste 0 -- -- 56
2019-10-12 12:00:00 23.9 19 Sur 45 Sudoeste 0 -- -- 58
2019-10-12 11:00:00 23.4 19 Sur 49 Sudoeste 0 -- -- 59
2019-10-12 10:00:00 23.1 23 Sur 53 Sur 0 -- -- 61
2019-10-12 09:00:00 23.1 9 Sudoeste 45 Sudoeste 0 -- -- 61
2019-10-12 08:00:00 22.8 18 Sur 52 Sudoeste 0 -- -- 63
2019-10-12 07:00:00 22.6 20 Sur 43 Sur 0 -- -- 67
2019-10-12 06:00:00 19.2 9 Sur 26 Sudoeste 0 -- -- 95
2019-10-12 05:00:00 19 0 Calma 13 Noroeste 0 -- -- 95
2019-10-12 04:00:00 19.1 7 Noroeste 13 Noroeste 0 -- -- 95
2019-10-12 03:00:00 19.1 0 Calma 13 Noroeste 0 -- -- 94
2019-10-12 02:00:00 19.2 12 Noroeste 33 Noroeste 0 -- -- 94
2019-10-12 01:00:00 19.3 17 Noroeste 34 Noroeste 0 -- -- 94
2019-10-12 00:00:00 19.7 13 Noroeste 32 Noroeste 0 -- -- 92
2019-10-11 23:00:00 22.7 14 Noroeste 40 Sur 0 -- -- 70
2019-10-11 22:00:00 24.3 16 Sur 34 Sur 0 -- -- 59
2019-10-11 21:00:00 22.2 0 Calma 11 Sur 0 -- -- 69
2019-10-11 20:00:00 22.1 0 Calma 9 Noroeste 0 -- -- 72
2019-10-11 19:00:00 23.6 0 Calma 19 Nordeste 0 -- -- 68
2019-10-11 18:00:00 24.2 2 Nordeste 17 Nordeste 0 -- -- 66
2019-10-11 17:00:00 25.2 4 Norte 13 Nordeste 0 -- -- 54
2019-10-11 16:00:00 28.1 5 Nordeste 25 Sur 0 -- -- 45
2019-10-11 15:00:00 28.6 12 Sur 31 Sur 0 -- -- 42
2019-10-11 14:00:00 27.7 15 Sur 38 Sur 0 -- -- 44
2019-10-11 13:00:00 26.3 19 Sur 41 Sur 0 -- -- 47
2019-10-11 12:00:00 24.9 20 Sur 46 Sur 0 -- -- 49
2019-10-11 11:00:00 23.9 22 Sur 41 Sudoeste 0 -- -- 50
2019-10-11 10:00:00 22.2 9 Sur 40 Sur 0 -- -- 53
2019-10-11 09:00:00 19.8 14 Sur 52 Sur 0 -- -- 55
2019-10-11 08:00:00 19.4 22 Sur 54 Sudoeste 0 -- -- 56
2019-10-11 07:00:00 15.6 8 Sur 26 Sudoeste 0 -- -- 89
2019-10-11 06:00:00 13.6 0 Calma 14 Sudoeste 0 -- -- 96
2019-10-11 05:00:00 12.1 9 Sur 15 Sur 0 -- -- 96
2019-10-11 04:00:00 12.3 10 Sur 14 Sur 0 -- -- 95
2019-10-11 03:00:00 12.6 7 Sur 14 Sur 0 -- -- 95
2019-10-11 02:00:00 12.7 10 Sur 15 Sur 0 -- -- 95
2019-10-11 01:00:00 13.3 9 Sur 14 Sur 0 -- -- 94
2019-10-11 00:00:00 13.3 7 Sur 14 Sur 0 -- -- 93
2019-10-10 23:00:00 13.7 10 Sur 15 Sur 0 -- -- 91
2019-10-10 22:00:00 14.6 8 Sur 13 Sur 0 -- -- 88
2019-10-10 21:00:00 15.6 9 Sur 13 Sur 0 -- -- 81
2019-10-10 20:00:00 17.1 5 Sudeste 10 Sudeste 0 -- -- 71
2019-10-10 19:00:00 18.7 5 Este 17 Nordeste 0 -- -- 65
2019-10-10 18:00:00 20.1 9 Nordeste 21 Nordeste 0 -- -- 61
2019-10-10 17:00:00 20.3 14 Nordeste 20 Nordeste 0 -- -- 60
2019-10-10 16:00:00 20.4 14 Nordeste 20 Nordeste 0 -- -- 59
2019-10-10 15:00:00 20.4 12 Nordeste 18 Nordeste 0 -- -- 57
2019-10-10 14:00:00 20.5 11 Nordeste 14 Norte 0 -- -- 58
2019-10-10 13:00:00 21.7 6 Nordeste 15 Nordeste 0 -- -- 57
2019-10-10 12:00:00 19.7 0 Calma 10 Sur 0 -- -- 64
2019-10-10 11:00:00 17.6 4 Sur 13 Sudoeste 0 -- -- 78
2019-10-10 10:00:00 14 6 Sur 14 Sur 0 -- -- 91
2019-10-10 09:00:00 12.1 8 Sur 13 Sur 0 -- -- 93
2019-10-10 08:00:00 12.3 5 Sur 15 Sur 0 -- -- 93
2019-10-10 07:00:00 12.4 9 Sur 15 Sur 0 -- -- 93
2019-10-10 06:00:00 12.6 8 Sur 14 Sudoeste 0 -- -- 92
2019-10-10 05:00:00 12.9 5 Sur 13 Sur 0 -- -- 91
2019-10-10 04:00:00 13.3 6 Sur 13 Sudoeste 0 -- -- 91
2019-10-10 03:00:00 13.5 6 Sur 12 Sur 0 -- -- 89
2019-10-10 02:00:00 13.8 6 Sur 13 Sur 0 -- -- 87
2019-10-10 01:00:00 14.6 2 Sur 14 Sur 0 -- -- 85
2019-10-10 00:00:00 14.5 4 Sur 14 Sur 0 -- -- 85
2019-10-09 23:00:00 14.6 9 Sur 15 Sur 0 -- -- 84
2019-10-09 22:00:00 15.2 6 Sur 14 Sur 0 -- -- 82
2019-10-09 21:00:00 16.1 6 Sur 11 Sur 0 -- -- 75
2019-10-09 20:00:00 17.6 8 Noroeste 37 Noroeste 0 -- -- 70
2019-10-09 19:00:00 18 19 Noroeste 38 Noroeste 0 -- -- 66
2019-10-09 18:00:00 19.5 27 Noroeste 45 Noroeste 0 -- -- 64
2019-10-09 17:00:00 19.9 31 Noroeste 46 Noroeste 0 -- -- 64
2019-10-09 16:00:00 20.1 15 Noroeste 36 Noroeste 0 -- -- 66
2019-10-09 15:00:00 20.2 9 Noroeste 33 Noroeste 0 -- -- 66
2019-10-09 14:00:00 19.2 15 Noroeste 32 Noroeste 0 -- -- 72
2019-10-09 13:00:00 16.3 7 Oeste 38 Oeste 0 -- -- 83
2019-10-09 12:00:00 16.3 24 Noroeste 43 Noroeste 0 -- -- 88
2019-10-09 11:00:00 15.8 0 Calma 14 Sudoeste 0 -- -- 97
2019-10-09 10:00:00 14.9 6 Sur 13 Sur 0 -- -- 98
2019-10-09 09:00:00 14.6 6 Sur 24 Noroeste 0.1 -- -- 98
2019-10-09 08:00:00 14.3 21 Noroeste 46 Noroeste 0.5 -- -- 98
2019-10-09 07:00:00 14.9 0 Calma 19 Oeste 0 -- -- 98
2019-10-09 06:00:00 15.2 9 Noroeste 38 Noroeste 0.6 -- -- 98
2019-10-09 05:00:00 14.9 0 Calma 21 Noroeste 0 -- -- 98
2019-10-09 04:00:00 15.1 0 Calma 10 Sur 0 -- -- 98
2019-10-09 03:00:00 15.1 0 Calma 33 Noroeste 0.1 -- -- 98
2019-10-09 02:00:00 15.7 7 Sur 12 Sur 0.1 -- -- 98
2019-10-09 01:00:00 15.9 0 Calma 10 Sudeste 0.4 -- -- 98
2019-10-09 00:00:00 16.2 12 Noroeste 27 Noroeste 1.1 -- -- 98
2019-10-08 23:00:00 16.7 19 Noroeste 33 Noroeste 0.5 -- -- 98
2019-10-08 22:00:00 17.1 21 Noroeste 42 Noroeste 0.5 -- -- 97
2019-10-08 21:00:00 18 36 Noroeste 45 Noroeste 0.1 -- -- 97
2019-10-08 20:00:00 19.5 28 Noroeste 41 Noroeste 0 -- -- 93
2019-10-08 19:00:00 21.8 25 Noroeste 37 Noroeste 0 -- -- 73
2019-10-08 18:00:00 22.4 0 Calma 7 Norte 0 -- -- 61
2019-10-08 17:00:00 23.6 0 Calma -- -- 0 -- -- 58
2019-10-08 16:00:00 23.4 0 Calma -- -- 0 -- -- 51
2019-10-08 15:00:00 23.9 0 Calma 10 Noroeste 0 -- -- 57
2019-10-08 14:00:00 22 5 Norte 12 Noroeste 0 -- -- 59
2019-10-08 13:00:00 21.5 0 Calma 9 Nordeste 0 -- -- 58
2019-10-08 12:00:00 23.2 4 Sur 14 Sur 0 -- -- 49
2019-10-08 11:00:00 20.1 10 Sur 19 Sur 0 -- -- 55
2019-10-08 10:00:00 16.5 13 Sur 21 Sur 0 -- -- 65
2019-10-08 09:00:00 13 16 Sur 23 Sur 0 -- -- 75
2019-10-08 08:00:00 12.7 11 Sur 18 Sur 0 -- -- 78
2019-10-08 07:00:00 12.8 12 Sur 20 Sur 0 -- -- 80
2019-10-08 06:00:00 13.1 15 Sur 21 Sur 0 -- -- 82
2019-10-08 05:00:00 13.2 13 Sur 18 Sur 0 -- -- 85
2019-10-08 04:00:00 13.2 9 Sur 19 Sur 0 -- -- 88
2019-10-08 03:00:00 13.4 12 Sur 19 Sur 0 -- -- 89
2019-10-08 02:00:00 13.9 11 Sur 17 Sur 0 -- -- 89
2019-10-08 01:00:00 14.2 12 Sur 18 Sur 0 -- -- 90
2019-10-08 00:00:00 14.4 10 Sur 16 Sur 0 -- -- 90
2019-10-07 23:00:00 14.8 10 Sur 16 Sur 0 -- -- 90
2019-10-07 22:00:00 15.5 10 Sur 15 Sur 0 -- -- 89
2019-10-07 21:00:00 16.8 6 Sur 12 Sur 0 -- -- 85
2019-10-07 20:00:00 18.1 0 Calma 7 Nordeste 0 -- -- 76
2019-10-07 19:00:00 19.6 0 Calma 18 Este 0 -- -- 69
2019-10-07 18:00:00 21 14 Nordeste 20 Nordeste 0 -- -- 65
2019-10-07 17:00:00 22.1 8 Este 24 Nordeste 0 -- -- 64
2019-10-07 16:00:00 21.8 12 Este 30 Nordeste 0 -- -- 65
2019-10-07 15:00:00 20.8 15 Nordeste 25 Nordeste 0 -- -- 64
2019-10-07 14:00:00 20.5 11 Nordeste 15 Nordeste 0 -- -- 68
2019-10-07 13:00:00 19.9 0 Calma 0 Calma 0 -- -- 71
2019-10-07 12:00:00 18.5 0 Calma 10 Sur 0 -- -- 80
2019-10-07 11:00:00 16.9 5 Sur 13 Sur 0 -- -- 89
2019-10-07 10:00:00 14.6 8 Sur 14 Sur 0 -- -- 98
2019-10-07 09:00:00 12.4 10 Sur 15 Sur 0 -- -- 98
2019-10-07 08:00:00 12.4 8 Sur 14 Sur 0 -- -- 98
2019-10-07 07:00:00 12.7 8 Sur 14 Sur 0 -- -- 98
2019-10-07 06:00:00 12.8 7 Sur 13 Sur 0 -- -- 98
2019-10-07 05:00:00 13.1 8 Sur 14 Sur 0 -- -- 97
2019-10-07 04:00:00 13.4 8 Sur 13 Sur 0 -- -- 97
2019-10-07 03:00:00 13.6 8 Sur 13 Sudoeste 0 -- -- 96
2019-10-07 02:00:00 14 6 Sur 13 Sur 0 -- -- 95
2019-10-07 01:00:00 14.6 7 Sur 13 Sur 0 -- -- 94
2019-10-07 00:00:00 15.4 8 Sur 11 Sur 0 -- -- 91
2019-10-06 23:00:00 16.3 0 Calma 18 Norte 0 -- -- 86
2019-10-06 22:00:00 17.3 10 Noroeste 23 Noroeste 0.1 -- -- 81
2019-10-06 21:00:00 17.1 17 Noroeste 29 Noroeste 0 -- -- 86
2019-10-06 20:00:00 17.6 12 Noroeste 29 Noroeste 0 -- -- 87
2019-10-06 19:00:00 17.6 21 Noroeste 30 Noroeste 0 -- -- 90
2019-10-06 18:00:00 17.7 0 Calma 11 Sudoeste 0 -- -- 93
2019-10-06 17:00:00 17.1 5 Sudoeste 36 Noroeste 0.4 -- -- 93
2019-10-06 16:00:00 17.2 6 Oeste 31 Noroeste 1 -- -- 89
2019-10-06 15:00:00 19 7 Noroeste 24 Noroeste 0.1 -- -- 78
2019-10-06 14:00:00 17.6 6 Sudoeste 48 Noroeste 0.1 -- -- 84
2019-10-06 13:00:00 19.2 11 Noroeste 21 Noroeste 0 -- -- 75
2019-10-06 12:00:00 18.9 0 Calma 19 Noroeste 0 -- -- 77
2019-10-06 11:00:00 17.5 0 Calma 11 Sur 0 -- -- 85
2019-10-06 10:00:00 16.1 6 Sur 13 Sur 0 -- -- 88
2019-10-06 09:00:00 15.4 4 Sur 13 Sur 0 -- -- 90
2019-10-06 08:00:00 15.1 6 Sur 13 Sur 0 -- -- 92
2019-10-06 07:00:00 14.9 3 Sur 15 Sudoeste 0 -- -- 94
2019-10-06 06:00:00 14.6 5 Sur 12 Sur 0 -- -- 94
2019-10-06 05:00:00 14.4 8 Sur 13 Sur 0 -- -- 94
2019-10-06 04:00:00 14.7 6 Sur 12 Sur 0 -- -- 93
2019-10-06 03:00:00 15.3 3 Sur 12 Sur 0 -- -- 92
2019-10-06 02:00:00 -- -- -- -- -- -- -- -- --
2019-10-06 01:00:00 15.9 4 Sur 11 Sur 0 -- -- 92
2019-10-06 00:00:00 16.1 3 Sur 12 Sur 0 -- -- 91
2019-10-05 23:00:00 16.6 0 Calma 9 Sudoeste 0 -- -- 91
2019-10-05 22:00:00 16.7 0 Calma 8 Sur 0 -- -- 89
2019-10-05 21:00:00 16.8 0 Calma -- -- 0 -- -- 84
2019-10-05 20:00:00 17.9 0 Calma 10 Norte 0 -- -- 76
2019-10-05 19:00:00 19.2 8 Norte 12 Norte 0 -- -- 71
2019-10-05 18:00:00 21 7 Nordeste 13 Nordeste 0 -- -- 65
2019-10-05 17:00:00 22.1 3 Norte 13 Nordeste 0 -- -- 63
2019-10-05 16:00:00 22.1 7 Norte 15 Nordeste 0 -- -- 64
2019-10-05 15:00:00 21.5 9 Nordeste 15 Nordeste 0 -- -- 63
2019-10-05 14:00:00 -- -- -- -- -- -- -- -- --
2019-10-05 13:00:00 20.5 0 Calma 12 Este 0 -- -- 80
2019-10-05 12:00:00 16.9 0 Calma 10 Sudeste 0 -- -- 98
2019-10-05 11:00:00 16.4 0 Calma 12 Sudoeste 0 -- -- 99
2019-10-05 10:00:00 15.2 8 Sur 12 Sur 0 -- -- 99
2019-10-05 09:00:00 14.7 2 Sur 10 Sudoeste 0 -- -- 99
2019-10-05 08:00:00 14.8 0 Calma 7 Sur 0 -- -- 99
2019-10-05 07:00:00 15 0 Calma -- -- 0.1 -- -- 98
2019-10-05 06:00:00 15.4 0 Calma 8 Sur 0 -- -- 98
2019-10-05 05:00:00 15.7 0 Calma 4 Sur 0 -- -- 98
2019-10-05 04:00:00 15.9 0 Calma 9 Sur 0 -- -- 98
2019-10-05 03:00:00 15.9 0 Calma 17 Sur 0 -- -- 98
2019-10-05 02:00:00 15.9 9 Sur 18 Sur 0.4 -- -- 98
2019-10-05 01:00:00 16.1 0 Calma 12 Sur 0 -- -- 98
2019-10-05 00:00:00 16.1 6 Sur 13 Sur 0.1 -- -- 98
2019-10-04 23:00:00 16.4 0 Calma 10 Sur 0 -- -- 97
2019-10-04 22:00:00 16.4 5 Sur 11 Sur 0 -- -- 97
2019-10-04 21:00:00 16.8 0 Calma 16 Noroeste 0.1 -- -- 96
2019-10-04 20:00:00 16.9 0 Calma 10 Noroeste 0 -- -- 97
2019-10-04 19:00:00 17.3 0 Calma 10 Sur 0 -- -- 97
2019-10-04 18:00:00 17.4 0 Calma 9 Noroeste 0.1 -- -- 97
2019-10-04 17:00:00 17.2 3 Noroeste 15 Noroeste 0.4 -- -- 97
2019-10-04 16:00:00 17.5 0 Calma 23 Oeste 0.3 -- -- 96
2019-10-04 15:00:00 17.1 8 Oeste 25 Noroeste 0 -- -- 95
2019-10-04 14:00:00 17.5 7 Noroeste 32 Noroeste 0.8 -- -- 95
2019-10-04 13:00:00 18.6 17 Noroeste 26 Noroeste 0 -- -- 92
2019-10-04 12:00:00 18.1 0 Calma 26 Noroeste 0.9 -- -- 96
2019-10-04 11:00:00 17.3 0 Calma 10 Sur 0.9 -- -- 94
2019-10-04 10:00:00 17.1 5 Sudoeste 8 Sudoeste 0.2 -- -- 92
2019-10-04 09:00:00 16.9 0 Calma 7 Sur 0 -- -- 86
2019-10-04 08:00:00 16.8 0 Calma 12 Sur 0 -- -- 84
2019-10-04 07:00:00 16.8 7 Sur 14 Sur 0 -- -- 83
2019-10-04 06:00:00 16.8 7 Sur 12 Sudoeste 0 -- -- 82
2019-10-04 05:00:00 16.9 6 Sur 14 Sudoeste 0 -- -- 82
2019-10-04 04:00:00 16.8 8 Sur 14 Sudoeste 0 -- -- 81
2019-10-04 03:00:00 16.6 7 Sur 15 Sudoeste 0 -- -- 82
2019-10-04 02:00:00 16.1 8 Sur 13 Sur 0 -- -- 85
2019-10-04 01:00:00 15.6 8 Sur 14 Sur 0 -- -- 88
2019-10-04 00:00:00 15.1 7 Sur 14 Sur 0 -- -- 91
2019-10-03 23:00:00 14.9 8 Sur 14 Sudoeste 0 -- -- 90
2019-10-03 22:00:00 15.2 9 Sur 13 Sur 0 -- -- 87
2019-10-03 21:00:00 16.2 8 Sur 12 Sudoeste 0 -- -- 79
2019-10-03 20:00:00 17.9 0 Calma 8 Nordeste 0 -- -- 68
2019-10-03 19:00:00 19.6 4 Nordeste 12 Nordeste 0 -- -- 61
2019-10-03 18:00:00 21.3 8 Nordeste 14 Nordeste 0 -- -- 54
2019-10-03 17:00:00 21.8 8 Nordeste 14 Nordeste 0 -- -- 53
2019-10-03 16:00:00 21.7 8 Nordeste 18 Nordeste 0 -- -- 53
2019-10-03 15:00:00 21 14 Nordeste 19 Norte 0 -- -- 57
2019-10-03 14:00:00 21.2 10 Nordeste 18 Nordeste 0 -- -- 60
2019-10-03 13:00:00 20.8 12 Nordeste 17 Nordeste 0 -- -- 63
2019-10-03 12:00:00 21 2 Sudeste 10 Sur 0 -- -- 69
2019-10-03 11:00:00 17.8 3 Sur 13 Sur 0 -- -- 83
2019-10-03 10:00:00 16 5 Sur 13 Sur 0 -- -- 92
2019-10-03 09:00:00 14.3 5 Sur 13 Sur 0 -- -- 96
2019-10-03 08:00:00 14.4 4 Sur 13 Sur 0 -- -- 96
2019-10-03 07:00:00 14.5 4 Sur 12 Sur 0 -- -- 96
2019-10-03 06:00:00 14.5 2 Sur 14 Sur 0 -- -- 96
2019-10-03 05:00:00 14.4 4 Sur 12 Sur 0 -- -- 96
2019-10-03 04:00:00 14.4 5 Sur 16 Sur 0 -- -- 96
2019-10-03 03:00:00 14.5 6 Sur 13 Sur 0 -- -- 95
2019-10-03 02:00:00 14.9 4 Sur 11 Sur 0 -- -- 92
2019-10-03 01:00:00 15.9 5 Sur 11 Sudeste 0 -- -- 87
2019-10-03 00:00:00 17.5 7 Oeste 19 Oeste 0 -- -- 78
2019-10-02 23:00:00 17.4 4 Oeste 20 Noroeste 0 -- -- 78
2019-10-02 22:00:00 17.3 3 Oeste 22 Noroeste 0 -- -- 79
2019-10-02 21:00:00 17.3 4 Noroeste 21 Noroeste 0.1 -- -- 82
2019-10-02 20:00:00 17.4 6 Oeste 26 Noroeste 0 -- -- 84
2019-10-02 19:00:00 17.5 21 Noroeste 32 Noroeste 0 -- -- 88
2019-10-02 18:00:00 17.1 22 Noroeste 37 Noroeste 0 -- -- 91
2019-10-02 17:00:00 17.1 4 Noroeste 48 Noroeste 1.2 -- -- 95
2019-10-02 16:00:00 17.9 20 Noroeste 45 Noroeste 2.2 -- -- 87
2019-10-02 15:00:00 18.9 19 Noroeste 39 Noroeste 0 -- -- 81
2019-10-02 14:00:00 18.2 10 Noroeste 31 Noroeste 0 -- -- 81
2019-10-02 13:00:00 17.6 10 Noroeste 40 Noroeste 0.1 -- -- 89
2019-10-02 12:00:00 16.9 8 Oeste 28 Noroeste 0.5 -- -- 90
2019-10-02 11:00:00 16.8 0 Calma 46 Noroeste 0.9 -- -- 91
2019-10-02 10:00:00 17.1 13 Noroeste 30 Oeste 0.1 -- -- 85
2019-10-02 09:00:00 16.5 5 Oeste 37 Noroeste 1.3 -- -- 90
2019-10-02 08:00:00 16.5 18 Noroeste 34 Noroeste 0.2 -- -- 87
2019-10-02 07:00:00 16 5 Oeste 48 Oeste 0.6 -- -- 91
2019-10-02 06:00:00 16.1 5 Oeste 57 Noroeste 1.7 -- -- 93
2019-10-02 05:00:00 17.5 7 Oeste 34 Noroeste 0 -- -- 77
2019-10-02 04:00:00 17.5 17 Noroeste 42 Noroeste 0.1 -- -- 79
2019-10-02 03:00:00 18.4 9 Oeste 32 Noroeste 0.1 -- -- 71
2019-10-02 02:00:00 18.7 8 Oeste 27 Noroeste 0 -- -- 67
2019-10-02 01:00:00 19.2 7 Oeste 41 Noroeste 0 -- -- 66
2019-10-02 00:00:00 19.4 9 Noroeste 44 Noroeste 0 -- -- 69
2019-10-01 23:00:00 19.6 22 Noroeste 50 Noroeste 0 -- -- 76
2019-10-01 22:00:00 19.5 31 Noroeste 50 Noroeste 0 -- -- 80
2019-10-01 21:00:00 19.1 34 Noroeste 49 Noroeste 0.1 -- -- 84
2019-10-01 20:00:00 19.4 23 Noroeste 45 Noroeste 0 -- -- 79
2019-10-01 19:00:00 20.2 22 Noroeste 40 Noroeste 0 -- -- 74
2019-10-01 18:00:00 20.2 28 Noroeste 44 Noroeste 0 -- -- 78
2019-10-01 17:00:00 20.3 25 Noroeste 36 Noroeste 0 -- -- 78
2019-10-01 16:00:00 21 23 Noroeste 36 Noroeste 0 -- -- 78
2019-10-01 15:00:00 21.6 25 Noroeste 36 Noroeste 0 -- -- 77
2019-10-01 14:00:00 21.5 20 Noroeste 29 Noroeste 0 -- -- 81
2019-10-01 13:00:00 22 18 Norte 23 Noroeste 0 -- -- 71
2019-10-01 12:00:00 23.3 4 Noroeste 14 Noroeste 0 -- -- 70
2019-10-01 11:00:00 21.4 0 Calma 10 Oeste 0 -- -- 84
2019-10-01 10:00:00 19 0 Calma 12 Sur 0 -- -- 94
2019-10-01 09:00:00 17.4 8 Sudoeste 18 Oeste 0 -- -- 96
2019-10-01 08:00:00 17.4 5 Oeste 25 Noroeste 0 -- -- 96
2019-10-01 07:00:00 16.5 8 Sur 13 Sur 0 -- -- 96
2019-10-01 06:00:00 16.7 8 Sur 15 Sur 0 -- -- 96
2019-10-01 05:00:00 16.9 8 Sur 15 Sur 0 -- -- 95
2019-10-01 04:00:00 17.1 7 Sur 14 Sudoeste 0 -- -- 95
2019-10-01 03:00:00 17.3 8 Sur 12 Sur 0 -- -- 95
2019-10-01 02:00:00 17.6 6 Sur 14 Sur 0 -- -- 94
2019-10-01 01:00:00 17.9 8 Sur 12 Sudoeste 0 -- -- 93
2019-10-01 00:00:00 18.3 5 Sudoeste 13 Sur 0 -- -- 91
2019-09-30 23:00:00 18.8 9 Sur 14 Sur 0 -- -- 89
2019-09-30 22:00:00 19.4 7 Sur 14 Sur 0 -- -- 85
2019-09-30 21:00:00 20.7 4 Sur 8 Sur 0 -- -- 76
2019-09-30 20:00:00 22 2 Oeste 10 Sudeste 0 -- -- 70
2019-09-30 19:00:00 24.2 9 Este 15 Este 0 -- -- 61
2019-09-30 18:00:00 24.8 7 Nordeste 17 Nordeste 0 -- -- 67
2019-09-30 17:00:00 23.8 13 Nordeste 19 Nordeste 0 -- -- 68
2019-09-30 16:00:00 25.9 11 Este 21 Nordeste 0 -- -- 61
2019-09-30 15:00:00 25.1 10 Nordeste 22 Nordeste 0 -- -- 66
2019-09-30 14:00:00 23.7 15 Nordeste 22 Nordeste 0 -- -- 69
2019-09-30 13:00:00 24 11 Nordeste 21 Nordeste 0 -- -- 68
2019-09-30 12:00:00 24.1 12 Nordeste 17 Este 0 -- -- 67
2019-09-30 11:00:00 22.6 0 Calma 6 Sudoeste 0 -- -- 74
2019-09-30 10:00:00 21 0 Calma 13 Sur 0 -- -- 84
2019-09-30 09:00:00 17.9 8 Sur 15 Sur 0 -- -- 92
2019-09-30 08:00:00 17.7 8 Sur 16 Sur 0 -- -- 91
2019-09-30 07:00:00 18 9 Sur 17 Sur 0 -- -- 91
2019-09-30 06:00:00 18.4 6 Sur 12 Sur 0 -- -- 89
2019-09-30 05:00:00 18.2 0 Calma -- -- 0 -- -- 87
2019-09-30 04:00:00 18.1 0 Calma 9 Sudoeste 0 -- -- 87
2019-09-30 03:00:00 18.3 5 Sur 11 Sudoeste 0 -- -- 85
2019-09-30 02:00:00 18.1 8 Sur 12 Sudoeste 0 -- -- 84
2019-09-30 01:00:00 18.2 7 Sur 10 Sudoeste 0 -- -- 81
2019-09-30 00:00:00 18.2 7 Sur 10 Sudoeste 0 -- -- 79
2019-09-29 23:00:00 18.1 8 Sur 13 Sudoeste 0 -- -- 76
2019-09-29 22:00:00 18.1 9 Sur 14 Sur 0 -- -- 75
2019-09-29 21:00:00 18.9 8 Sur 12 Sur 0 -- -- 71
2019-09-29 20:00:00 21 0 Calma 9 Sur 0 -- -- 68
2019-09-29 19:00:00 23.3 0 Calma 8 Norte 0 -- -- 67
2019-09-29 18:00:00 23.6 12 Norte 15 Norte 0 -- -- 69
2019-09-29 17:00:00 24.4 0 Calma 8 Norte 0 -- -- 62
2019-09-29 16:00:00 24.3 0 Calma 5 Noroeste 0 -- -- 76
2019-09-29 15:00:00 23 0 Calma -- -- 0 -- -- 77
2019-09-29 14:00:00 23.5 0 Calma 15 Noroeste 0 -- -- 77
2019-09-29 13:00:00 22.2 12 Noroeste 16 Noroeste 0 -- -- 80
2019-09-29 12:00:00 21.8 2 Noroeste 13 Noroeste 0 -- -- 80
2019-09-29 11:00:00 20.7 4 Noroeste 11 Noroeste 0 -- -- 84
2019-09-29 10:00:00 18.3 4 Noroeste 10 Noroeste 0.1 -- -- 92
2019-09-29 09:00:00 14.7 0 Calma 11 Sudoeste 0 -- -- 98
2019-09-29 08:00:00 13.6 8 Sudoeste 14 Sudoeste 0 -- -- 98
2019-09-29 07:00:00 13.5 10 Sudoeste 15 Sudoeste 0 -- -- 98
2019-09-29 06:00:00 13.9 10 Sudoeste 14 Sudoeste 0 -- -- 98
2019-09-29 05:00:00 14.4 6 Sudoeste 12 Sudoeste 0 -- -- 98
2019-09-29 04:00:00 14.9 0 Calma 11 Sudoeste 0 -- -- 97
2019-09-29 03:00:00 15.1 8 Sur 14 Sur 0 -- -- 97
2019-09-29 02:00:00 15.5 0 Calma 16 Sur 0 -- -- 96
2019-09-29 01:00:00 15.6 10 Sur 14 Sur 0 -- -- 95
2019-09-29 00:00:00 16 10 Sur 14 Sur 0 -- -- 94
2019-09-28 23:00:00 16.6 6 Sur 12 Sur 0 -- -- 92
2019-09-28 22:00:00 17.4 7 Sur 13 Sur 0 -- -- 90
2019-09-28 21:00:00 18.2 0 Calma 9 Sur 0 -- -- 85
2019-09-28 20:00:00 19.5 0 Calma 14 Este 0 -- -- 78
2019-09-28 19:00:00 21.3 5 Este 21 Este 0.1 -- -- 71
2019-09-28 18:00:00 21.9 13 Este 21 Este 0 -- -- 69
2019-09-28 17:00:00 21.5 15 Nordeste 27 Nordeste 0 -- -- 72
2019-09-28 16:00:00 21.3 15 Nordeste 23 Nordeste 0 -- -- 72
2019-09-28 15:00:00 22.2 12 Nordeste 19 Nordeste 0 -- -- 70
2019-09-28 14:00:00 20.8 14 Nordeste 19 Nordeste 0 -- -- 70
2019-09-28 13:00:00 20.2 14 Nordeste 20 Nordeste 0 -- -- 71
2019-09-28 12:00:00 20.1 11 Nordeste 17 Nordeste 0 -- -- 74
2019-09-28 11:00:00 21 0 Calma 9 Sudeste 0 -- -- 83
2019-09-28 10:00:00 17.4 4 Sur 10 Sudeste 0 -- -- 96
2019-09-28 09:00:00 16.6 0 Calma -- -- 0 -- -- 96
2019-09-28 08:00:00 16.4 0 Calma 6 Sur 0 -- -- 96
2019-09-28 07:00:00 16.4 2 Sur 14 Sur 0 -- -- 95
2019-09-28 06:00:00 16.8 0 Calma 23 Noroeste 0 -- -- 94
2019-09-28 05:00:00 16.7 13 Noroeste 74 Noroeste 0.7 -- -- 93
2019-09-28 04:00:00 17.2 0 Calma -- -- 0 -- -- 90
2019-09-28 03:00:00 17.1 0 Calma 9 Sur 0 -- -- 91
2019-09-28 02:00:00 17.2 0 Calma 10 Sur 0 -- -- 92
2019-09-28 01:00:00 17.2 0 Calma 10 Sur 0 -- -- 92
2019-09-28 00:00:00 17.4 0 Calma 14 Sur 0 -- -- 92
2019-09-27 23:00:00 17.6 0 Calma 12 Noroeste 0 -- -- 91
2019-09-27 22:00:00 17.9 3 Noroeste 38 Noroeste 0 -- -- 90
2019-09-27 21:00:00 19 26 Noroeste 41 Noroeste 0 -- -- 83
2019-09-27 20:00:00 19.9 8 Noroeste 16 Noroeste 0 -- -- 85
2019-09-27 19:00:00 20.4 14 Noroeste 19 Norte 0 -- -- 84
2019-09-27 18:00:00 21.8 11 Nordeste 20 Nordeste 0 -- -- 74
2019-09-27 17:00:00 22.8 6 Nordeste 12 Nordeste 0 -- -- 71
2019-09-27 16:00:00 24 4 Norte 11 Norte 0 -- -- 69
2019-09-27 15:00:00 23.7 0 Calma 14 Noroeste 0 -- -- 69
2019-09-27 14:00:00 24.4 11 Noroeste 35 Noroeste 0 -- -- 70
2019-09-27 13:00:00 23.6 29 Noroeste 39 Noroeste 0 -- -- 66
2019-09-27 12:00:00 24.3 4 Noroeste 13 Noroeste 0 -- -- 60
2019-09-27 11:00:00 22.8 4 Sur 14 Sur 0 -- -- 70
2019-09-27 10:00:00 19 8 Sur 17 Sur 0 -- -- 86
2019-09-27 09:00:00 15.7 9 Sur 14 Sur 0 -- -- 96
2019-09-27 08:00:00 15.2 9 Sur 16 Sur 0 -- -- 96
2019-09-27 07:00:00 15.3 6 Sur 13 Sur 0 -- -- 96
2019-09-27 06:00:00 15.5 6 Sur 14 Sur 0 -- -- 97
2019-09-27 05:00:00 15.6 4 Sur 12 Sur 0 -- -- 96
2019-09-27 04:00:00 15.5 7 Sur 13 Sur 0 -- -- 95
2019-09-27 03:00:00 15.9 8 Sur 14 Sur 0 -- -- 94
2019-09-27 02:00:00 16.5 7 Sur 10 Sur 0 -- -- 92
2019-09-27 01:00:00 17.4 0 Calma 7 Nordeste 0 -- -- 89
2019-09-27 00:00:00 18.2 4 Sudeste 17 Sudeste 0 -- -- 85
2019-09-26 23:00:00 19 10 Sudeste 16 Sudeste 0 -- -- 82
2019-09-26 22:00:00 19.5 2 Nordeste 10 Nordeste 0 -- -- 78
2019-09-26 21:00:00 19.4 0 Calma 10 Nordeste 0 -- -- 78
2019-09-26 20:00:00 19.5 6 Nordeste 10 Norte 0 -- -- 78
2019-09-26 19:00:00 19.9 8 Norte 14 Norte 0 -- -- 78
2019-09-26 18:00:00 20.7 10 Nordeste 17 Norte 0 -- -- 74
2019-09-26 17:00:00 22.4 9 Nordeste 14 Norte 0 -- -- 68
2019-09-26 16:00:00 23.3 8 Nordeste 14 Norte 0 -- -- 67
2019-09-26 15:00:00 22.8 8 Norte 14 Norte 0 -- -- 67
2019-09-26 14:00:00 22.5 7 Nordeste 12 Nordeste 0 -- -- 69
2019-09-26 13:00:00 22.2 9 Nordeste 12 Nordeste 0 -- -- 70
2019-09-26 12:00:00 21.8 0 Calma 7 Sur 0 -- -- 70
2019-09-26 11:00:00 20.8 3 Sur 11 Sur 0 -- -- 80
2019-09-26 10:00:00 16.8 8 Sur 13 Sur 0 -- -- 91
2019-09-26 09:00:00 15.6 8 Sur 15 Sur 0 -- -- 94
2019-09-26 08:00:00 15.2 9 Sur 16 Sur 0 -- -- 94
2019-09-26 07:00:00 15.1 8 Sur 13 Sur 0 -- -- 94
2019-09-26 06:00:00 15.5 5 Sur 11 Sur 0 -- -- 93
2019-09-26 05:00:00 15.8 4 Sur 14 Sudoeste 0 -- -- 93
2019-09-26 04:00:00 15.9 6 Sur 16 Sur 0 -- -- 92
2019-09-26 03:00:00 16.3 7 Sur 13 Sur 0 -- -- 92
2019-09-26 02:00:00 16.8 4 Sur 12 Sur 0 -- -- 91
2019-09-26 01:00:00 17.4 3 Sur 9 Sur 0 -- -- 88
2019-09-26 00:00:00 18 0 Calma -- -- 0 -- -- 87
2019-09-25 23:00:00 18.4 2 Sur 8 Sur 0 -- -- 84
2019-09-25 22:00:00 18.9 0 Calma 7 Oeste 0 -- -- 79
2019-09-25 21:00:00 19.4 3 Noroeste 23 Noroeste 0 -- -- 76
2019-09-25 20:00:00 19.7 16 Noroeste 26 Noroeste 0 -- -- 74
2019-09-25 19:00:00 20.1 15 Noroeste 34 Noroeste 0 -- -- 70
2019-09-25 18:00:00 20.8 25 Noroeste 39 Noroeste 0 -- -- 68
2019-09-25 17:00:00 21.1 27 Noroeste 45 Noroeste 0 -- -- 67
2019-09-25 16:00:00 21.6 27 Noroeste 40 Noroeste 0 -- -- 65
2019-09-25 15:00:00 21 27 Noroeste 39 Noroeste 0 -- -- 63
2019-09-25 14:00:00 23.6 14 Noroeste 28 Noroeste 0 -- -- 61
2019-09-25 13:00:00 22.2 7 Noroeste 23 Noroeste 0 -- -- 60
2019-09-25 12:00:00 21.5 5 Noroeste 21 Noroeste 0 -- -- 62
2019-09-25 11:00:00 20 3 Oeste 20 Noroeste 0 -- -- 66
2019-09-25 10:00:00 19.8 2 Oeste 18 Sudoeste 0 -- -- 65
2019-09-25 09:00:00 18.4 7 Oeste 24 Sudoeste 0 -- -- 66
2019-09-25 08:00:00 17.8 5 Sudoeste 21 Oeste 0 -- -- 68
2019-09-25 07:00:00 18.1 8 Oeste 21 Noroeste 0 -- -- 70
2019-09-25 06:00:00 18.3 6 Oeste 22 Oeste 0 -- -- 73
2019-09-25 05:00:00 17.3 6 Sur 11 Sur 0 -- -- 84
2019-09-25 04:00:00 18.1 4 Oeste 27 Noroeste 0 -- -- 77
2019-09-25 03:00:00 17.1 0 Calma 12 Sur 0 -- -- 90
2019-09-25 02:00:00 17 2 Sudoeste 13 Sudoeste 0 -- -- 90
2019-09-25 01:00:00 16.8 5 Sur 15 Sur 0 -- -- 90
2019-09-25 00:00:00 17.2 3 Sur 16 Sudoeste 0.3 -- -- 89
2019-09-24 23:00:00 17.9 3 Sur 16 Sudoeste 0.1 -- -- 81
2019-09-24 22:00:00 19 3 Sudoeste 25 Oeste 0 -- -- 71
2019-09-24 21:00:00 19.3 3 Noroeste 22 Noroeste 0 -- -- 78
2019-09-24 20:00:00 19.8 12 Noroeste 21 Noroeste 0 -- -- 74
2019-09-24 19:00:00 20 14 Noroeste 22 Noroeste 0 -- -- 73
2019-09-24 18:00:00 20.4 12 Noroeste 34 Noroeste 0 -- -- 74
2019-09-24 17:00:00 20.8 24 Noroeste 42 Noroeste 0 -- -- 69
2019-09-24 16:00:00 20.9 29 Noroeste 43 Noroeste 0 -- -- 71
2019-09-24 15:00:00 20.3 25 Noroeste 47 Noroeste 0 -- -- 81
2019-09-24 14:00:00 24.5 21 Noroeste 29 Noroeste 0 -- -- 73
2019-09-24 13:00:00 23.2 10 Nordeste 17 Nordeste 0 -- -- 77
2019-09-24 12:00:00 23 3 Nordeste 10 Nordeste 0 -- -- 77
2019-09-24 11:00:00 22.2 6 Noroeste 15 Noroeste 0 -- -- 74
2019-09-24 10:00:00 22.1 0 Calma 19 Sudoeste 0 -- -- 52
2019-09-24 09:00:00 22.5 8 Sudoeste 20 Sur 0 -- -- 50
2019-09-24 08:00:00 23.2 14 Sur 42 Sudoeste 0 -- -- 47
2019-09-24 07:00:00 23.3 19 Sur 49 Sur 0 -- -- 45
2019-09-24 06:00:00 23.6 3 Sudoeste 35 Sudoeste 0 -- -- 44
2019-09-24 05:00:00 24.2 14 Sudoeste 40 Sudoeste 0 -- -- 43
2019-09-24 04:00:00 23.2 6 Sudoeste 38 Sur 0 -- -- 48
2019-09-24 03:00:00 18 11 Sur 22 Sur 0 -- -- 81
2019-09-24 02:00:00 17.9 6 Sur 13 Sur 0 -- -- 84
2019-09-24 01:00:00 18.5 7 Sur 17 Sudoeste 0 -- -- 83
2019-09-24 00:00:00 18.8 5 Sudoeste 13 Sur 0 -- -- 82
2019-09-23 23:00:00 18.7 6 Sur 13 Sur 0 -- -- 84
2019-09-23 22:00:00 19.5 4 Sur 10 Sur 0 -- -- 83
2019-09-23 21:00:00 20.3 0 Calma 8 Nordeste 0 -- -- 80
2019-09-23 20:00:00 20.7 0 Calma -- -- 0 -- -- 75
2019-09-23 19:00:00 21.3 0 Calma 20 Nordeste 0 -- -- 74
2019-09-23 18:00:00 21.9 10 Nordeste 17 Nordeste 0 -- -- 72
2019-09-23 17:00:00 22.4 9 Este 15 Nordeste 0 -- -- 68
2019-09-23 16:00:00 22.5 8 Nordeste 33 Nordeste 0 -- -- 67
2019-09-23 15:00:00 23.1 10 Nordeste 21 Nordeste 0 -- -- 63
2019-09-23 14:00:00 23.4 0 Calma 23 Sudoeste 0 -- -- 53
2019-09-23 13:00:00 22.2 3 Sur 17 Sudoeste 0 -- -- 65
2019-09-23 12:00:00 20.4 0 Calma 9 Noroeste 0 -- -- 69
2019-09-23 11:00:00 19.7 0 Calma 11 Sur 0 -- -- 71
2019-09-23 10:00:00 17.4 4 Sur 15 Sudoeste 0 -- -- 86
2019-09-23 09:00:00 14.9 8 Sur 19 Sur 0 -- -- 94
2019-09-23 08:00:00 14.3 10 Sur 18 Sur 0 -- -- 94
2019-09-23 07:00:00 14.2 9 Sur 19 Sur 0 -- -- 94
2019-09-23 06:00:00 14.4 10 Sur 18 Sur 0 -- -- 94
2019-09-23 05:00:00 14.5 9 Sur 17 Sur 0 -- -- 94
2019-09-23 04:00:00 14.8 9 Sur 17 Sur 0 -- -- 94
2019-09-23 03:00:00 15.1 9 Sur 15 Sur 0 -- -- 94
2019-09-23 02:00:00 15.3 8 Sur 16 Sur 0 -- -- 93
2019-09-23 01:00:00 15.8 7 Sur 13 Sur 0 -- -- 92
2019-09-23 00:00:00 16.5 7 Sur 13 Sur 0 -- -- 91
2019-09-22 23:00:00 17.3 3 Sur 9 Sur 0 -- -- 87
2019-09-22 22:00:00 17.8 2 Sur 12 Sur 0 -- -- 81
2019-09-22 21:00:00 19.1 0 Calma 16 Norte 0 -- -- 71
2019-09-22 20:00:00 19.7 11 Noroeste 21 Noroeste 0 -- -- 69
2019-09-22 19:00:00 20.1 18 Noroeste 23 Norte 0 -- -- 66
2019-09-22 18:00:00 21.7 16 Norte 20 Noroeste 0 -- -- 61
2019-09-22 17:00:00 23 17 Noroeste 22 Noroeste 0 -- -- 59
2019-09-22 16:00:00 22.8 6 Norte 12 Norte 0 -- -- 62
2019-09-22 15:00:00 22.8 8 Nordeste 10 Nordeste 0 -- -- 62
2019-09-22 14:00:00 21.6 0 Calma 14 Nordeste 0 -- -- 71
2019-09-22 13:00:00 21.1 8 Nordeste 13 Nordeste 0 -- -- 72
2019-09-22 12:00:00 20.3 5 Sur 13 Sur 0 -- -- 93
2019-09-22 11:00:00 17.7 5 Sur 24 Sur 0 -- -- 97
2019-09-22 10:00:00 16.7 13 Sur 22 Sur 0 -- -- 97
2019-09-22 09:00:00 16.3 6 Sur 11 Sur 0.1 -- -- 97
2019-09-22 08:00:00 16.2 0 Calma 24 Noroeste 4.8 -- -- 97
2019-09-22 07:00:00 16.4 20 Noroeste 39 Noroeste 5.1 -- -- 97
2019-09-22 06:00:00 17.3 15 Noroeste 31 Noroeste 6.4 -- -- 95
2019-09-22 05:00:00 18.1 19 Noroeste 47 Noroeste 2 -- -- 92
2019-09-22 04:00:00 19.4 34 Noroeste 55 Noroeste 0 -- -- 85
2019-09-22 03:00:00 21.4 35 Noroeste 51 Noroeste 0 -- -- 75
2019-09-22 02:00:00 24.5 13 Sur 27 Sur 0 -- -- 54
2019-09-22 01:00:00 24.5 11 Sur 33 Sur 0 -- -- 52
2019-09-22 00:00:00 25.1 17 Sur 35 Sur 0 -- -- 53
2019-09-21 23:00:00 25.2 16 Sur 39 Sur 0 -- -- 52
2019-09-21 22:00:00 25.6 14 Sur 30 Sur 0 -- -- 51
2019-09-21 21:00:00 25.7 3 Sudoeste 22 Sudoeste 0 -- -- 52
2019-09-21 20:00:00 25.9 0 Calma 21 Sudeste 0 -- -- 55
2019-09-21 19:00:00 27.1 10 Sur 21 Sudeste 0 -- -- 52
2019-09-21 18:00:00 27.2 6 Sur 29 Sudoeste 0 -- -- 53
2019-09-21 17:00:00 27.8 6 Sur 38 Sur 0 -- -- 51
2019-09-21 16:00:00 27.2 8 Sur 30 Sur 0 -- -- 50
2019-09-21 15:00:00 26.9 13 Sur 29 Sur 0 -- -- 50
2019-09-21 14:00:00 28.9 15 Sur 36 Sur 0 -- -- 49
2019-09-21 13:00:00 26.8 14 Sur 35 Sur 0 -- -- 55
2019-09-21 12:00:00 28 14 Sur 44 Sudoeste 0 -- -- 53
2019-09-21 11:00:00 26.7 10 Sur 33 Sur 0 -- -- 58
2019-09-21 10:00:00 23.5 18 Sur 45 Sur 0 -- -- 64
2019-09-21 09:00:00 22.9 17 Sur 46 Sudoeste 0 -- -- 66
2019-09-21 08:00:00 22.9 32 Sur 68 Sur 0 -- -- 65
2019-09-21 07:00:00 22.7 29 Sur 65 Sur 0 -- -- 65
2019-09-21 06:00:00 22.5 28 Sur 72 Sur 0 -- -- 66
2019-09-21 05:00:00 21.9 29 Sur 59 Sur 0.2 -- -- 70
2019-09-21 04:00:00 23 17 Sur 42 Sur 0 -- -- 57
2019-09-21 03:00:00 23.9 9 Sur 51 Sudoeste 0 -- -- 55
2019-09-21 02:00:00 24.3 23 Sur 46 Sudeste 0 -- -- 54
2019-09-21 01:00:00 25.2 21 Sur 55 Sur 0 -- -- 52
2019-09-21 00:00:00 24.9 13 Sur 46 Sur 0 -- -- 50
2019-09-20 23:00:00 25.9 12 Sudoeste 35 Sudoeste 0 -- -- 53
2019-09-20 22:00:00 26.1 4 Noroeste 21 Sur 0 -- -- 54
2019-09-20 21:00:00 26.8 12 Sur 34 Sur 0 -- -- 50
2019-09-20 20:00:00 26.2 9 Sur 18 Sudeste 0 -- -- 51
2019-09-20 19:00:00 28.1 8 Sur 28 Sur 0 -- -- 46
2019-09-20 18:00:00 29.3 14 Sur 32 Sudeste 0 -- -- 43
2019-09-20 17:00:00 31.8 13 Sur 42 Sudoeste 0 -- -- 39
2019-09-20 16:00:00 31.6 16 Sur 37 Sur 0 -- -- 40
2019-09-20 15:00:00 31.2 14 Sur 40 Sudoeste 0 -- -- 42
2019-09-20 14:00:00 30.3 18 Sur 40 Sudoeste 0 -- -- 43
2019-09-20 13:00:00 28.9 19 Sur 45 Sur 0 -- -- 46
2019-09-20 12:00:00 25.6 21 Sur 49 Sur 0 -- -- 54
2019-09-20 11:00:00 23.9 5 Este 18 Sudeste 0 -- -- 70
2019-09-20 10:00:00 19.2 4 Sudeste 15 Sudeste 0 -- -- 96
2019-09-20 09:00:00 17.5 0 Calma 13 Sudoeste 0 -- -- 98
2019-09-20 08:00:00 15.8 0 Calma 15 Sur 0 -- -- 97
2019-09-20 07:00:00 16.1 9 Sur 13 Sur 0 -- -- 98
2019-09-20 06:00:00 15.7 7 Sur 11 Sur 0 -- -- 96
2019-09-20 05:00:00 16.3 3 Sur 11 Sur 0 -- -- 97
2019-09-20 04:00:00 16.4 6 Sur 12 Sudoeste 0 -- -- 96
2019-09-20 03:00:00 16.4 6 Sur 14 Sur 0 -- -- 96
2019-09-20 02:00:00 16.8 4 Sur 12 Sur 0 -- -- 95
2019-09-20 01:00:00 16.8 6 Sur 17 Sur 0 -- -- 93
2019-09-20 00:00:00 17.7 3 Sudoeste 10 Sur 0 -- -- 94
2019-09-19 23:00:00 18.1 3 Sur 10 Sur 0 -- -- 91
2019-09-19 22:00:00 18.3 0 Calma 8 Sur 0 -- -- 87
2019-09-19 21:00:00 18.6 0 Calma -- -- 0 -- -- 79
2019-09-19 20:00:00 20.4 0 Calma 8 Norte 0 -- -- 71
2019-09-19 19:00:00 22.1 0 Calma 11 Norte 0 -- -- 67
2019-09-19 18:00:00 22.9 5 Norte 13 Noroeste 0 -- -- 66
2019-09-19 17:00:00 23.1 7 Norte 13 Noroeste 0 -- -- 66
2019-09-19 16:00:00 23.1 10 Norte 18 Noroeste 0 -- -- 69
2019-09-19 15:00:00 22.8 15 Norte 22 Noroeste 0 -- -- 70
2019-09-19 14:00:00 24.5 17 Noroeste 23 Noroeste 0 -- -- 68
2019-09-19 13:00:00 24.1 14 Noroeste 18 Norte 0 -- -- 72
2019-09-19 12:00:00 22.7 0 Calma -- -- 0 -- -- 73
2019-09-19 11:00:00 21.1 0 Calma -- -- 0 -- -- 87
2019-09-19 10:00:00 18.7 0 Calma 12 Sur 0 -- -- 99
2019-09-19 09:00:00 17 6 Sur 17 Sur 0 -- -- 99
2019-09-19 08:00:00 16.4 4 Sur 13 Sur 0 -- -- 99
2019-09-19 07:00:00 16.1 4 Sur 13 Sur 0 -- -- 98
2019-09-19 06:00:00 16.2 2 Sur 13 Sur 0 -- -- 98
2019-09-19 05:00:00 16.6 8 Sur 12 Sur 0 -- -- 98
2019-09-19 04:00:00 16.8 8 Sur 11 Sur 0 -- -- 97
2019-09-19 03:00:00 17.5 8 Sudoeste 11 Sudoeste 0 -- -- 97
2019-09-19 02:00:00 17.8 4 Sur 9 Sur 0 -- -- 96
2019-09-19 01:00:00 18.1 0 Calma -- -- 0 -- -- 94
2019-09-19 00:00:00 18.8 0 Calma 11 Oeste 0 -- -- 94
2019-09-18 23:00:00 19.1 3 Sur 16 Noroeste 0 -- -- 92
2019-09-18 22:00:00 19.2 0 Calma -- -- 0 -- -- 89
2019-09-18 21:00:00 20.4 2 Noroeste 14 Noroeste 0 -- -- 89
2019-09-18 20:00:00 20.4 5 Noroeste 12 Noroeste 0 -- -- 87
2019-09-18 19:00:00 20.3 8 Norte 18 Noroeste 0 -- -- 85
2019-09-18 18:00:00 20.9 11 Norte 23 Noroeste 0 -- -- 85
2019-09-18 17:00:00 21.9 17 Noroeste 23 Noroeste 0 -- -- 85
2019-09-18 16:00:00 22.2 18 Noroeste 34 Noroeste 0 -- -- 82
2019-09-18 15:00:00 23.8 22 Noroeste 32 Noroeste 0 -- -- 80
2019-09-18 14:00:00 22.9 6 Norte 15 Noroeste 0 -- -- 84
2019-09-18 13:00:00 22.6 7 Noroeste 13 Oeste 0 -- -- 83
2019-09-18 12:00:00 21.1 0 Calma 12 Sur 0 -- -- 93
2019-09-18 11:00:00 19.3 2 Sudoeste 12 Sur 0 -- -- 97
2019-09-18 10:00:00 18.8 6 Sur 14 Sur 0 -- -- 98
2019-09-18 09:00:00 18.2 10 Sur 13 Sur 0 -- -- 98
2019-09-18 08:00:00 18.1 7 Sur 13 Sur 0 -- -- 98
2019-09-18 07:00:00 18.3 4 Sur 13 Sur 0 -- -- 97
2019-09-18 06:00:00 18.5 0 Calma 12 Sudoeste 1.3 -- -- 97
2019-09-18 05:00:00 18.3 0 Calma 10 Sur 0 -- -- 97
2019-09-18 04:00:00 18 3 Sur 12 Sur 0 -- -- 96
2019-09-18 03:00:00 18.5 7 Sur 12 Sur 0 -- -- 96
2019-09-18 02:00:00 19.1 0 Calma -- -- 0 -- -- 96
2019-09-18 01:00:00 19.4 0 Calma 10 Sur 0 -- -- 95
2019-09-18 00:00:00 19.7 0 Calma 7 Sur 0 -- -- 95
2019-09-17 23:00:00 20.6 0 Calma 9 Sur 0 -- -- 95
2019-09-17 22:00:00 20.9 0 Calma 6 Sudoeste 0 -- -- 93
2019-09-17 21:00:00 21.4 0 Calma 7 Noroeste 0 -- -- 91
2019-09-15 18:00:00 22.3 12 Sur 32 Sur 0.6 -- -- 70
2019-09-15 17:00:00 23.3 0 Calma 12 Noroeste 0.1 -- -- 84
2019-09-15 16:00:00 23.2 3 Noroeste 10 Noroeste 0 -- -- 81
2019-09-15 15:00:00 24.2 7 Noroeste 13 Noroeste 0 -- -- 78
2019-09-15 14:00:00 24.4 6 Noroeste 12 Norte 0 -- -- 76
2019-09-15 13:00:00 23.3 7 Norte 12 Noroeste 0 -- -- 79
2019-09-15 12:00:00 23.5 0 Calma 14 Nordeste 0 -- -- 78
2019-09-15 11:00:00 21.7 0 Calma 17 Sur 0 -- -- 81
2019-09-15 10:00:00 19.8 3 Sur 15 Sur 0 -- -- 88
2019-09-15 09:00:00 18.9 5 Sur 14 Sur 0 -- -- 93
2019-09-15 08:00:00 18.1 9 Sur 18 Sur 0 -- -- 96
2019-09-15 07:00:00 18.1 9 Sur 17 Sur 0 -- -- 96
2019-09-15 06:00:00 18.3 8 Sur 15 Sur 0 -- -- 96
2019-09-15 05:00:00 18.6 9 Sur 18 Sudoeste 0 -- -- 96
2019-09-15 04:00:00 18.4 9 Sur 18 Sur 0 -- -- 96
2019-09-15 03:00:00 18.4 6 Sur 12 Sur 0 -- -- 95
2019-09-15 02:00:00 18.5 6 Sur 14 Sur 0 -- -- 94
2019-09-15 01:00:00 18.6 9 Sur 14 Sur 0 -- -- 93
2019-09-15 00:00:00 19 8 Sur 14 Sudoeste 0 -- -- 92